createdAt,value
2017-10-20T00:02:05.767Z,127.77
2017-10-20T00:04:35.642Z,121.10
2017-10-20T00:07:05.501Z,135.77
2017-10-20T00:09:35.699Z,118.43
2017-10-20T00:12:05.585Z,123.33
2017-10-20T00:14:35.485Z,120.30
2017-10-20T00:17:05.362Z,118.03
2017-10-20T00:19:35.248Z,121.40
2017-10-20T00:22:05.078Z,135.73
2017-10-20T00:24:34.962Z,120.33
2017-10-20T00:27:04.840Z,125.90
2017-10-20T00:29:34.698Z,123.60
2017-10-20T00:32:04.554Z,130.57
2017-10-20T00:34:34.442Z,113.77
2017-10-20T00:37:04.298Z,117.23
2017-10-20T00:39:34.174Z,120.10
2017-10-20T00:42:04.106Z,119.83
2017-10-20T00:44:34.088Z,133.73
2017-10-20T00:47:04.021Z,118.20
2017-10-20T00:49:33.873Z,109.63
2017-10-20T00:52:03.839Z,119.23
2017-10-20T00:54:33.821Z,117.03
2017-10-20T00:57:03.694Z,116.23
2017-10-20T00:59:33.559Z,102.67
2017-10-20T01:02:03.474Z,104.93
2017-10-20T01:04:33.357Z,100.63
2017-10-20T01:07:03.252Z,103.77
2017-10-20T01:09:33.177Z,111.87
2017-10-20T01:12:03.063Z,123.33
2017-10-20T01:14:32.943Z,123.77
2017-10-20T01:17:02.812Z,115.10
2017-10-20T01:19:32.681Z,115.00
2017-10-20T01:22:02.552Z,110.60
2017-10-20T01:24:32.596Z,97.47
2017-10-20T01:27:02.441Z,118.47
2017-10-20T01:29:32.313Z,110.33
2017-10-20T01:32:02.184Z,115.53
2017-10-20T01:34:32.118Z,118.63
2017-10-20T01:37:02.010Z,108.90
2017-10-20T01:39:31.869Z,111.60
2017-10-20T01:42:01.730Z,102.93
2017-10-20T01:44:31.610Z,109.63
2017-10-20T01:47:01.507Z,118.00
2017-10-20T01:49:31.434Z,123.53
2017-10-20T01:52:01.282Z,109.60
2017-10-20T01:54:31.139Z,123.50
2017-10-20T01:57:01.011Z,122.77
2017-10-20T01:59:30.860Z,127.10
2017-10-20T02:02:00.756Z,115.90
2017-10-20T02:04:31.074Z,132.33
2017-10-20T02:07:00.932Z,108.40
2017-10-20T02:09:31.322Z,108.33
2017-10-20T02:12:01.204Z,103.00
2017-10-20T02:14:31.070Z,112.87
2017-10-20T02:17:00.934Z,110.97
2017-10-20T02:19:30.817Z,119.20
2017-10-20T02:22:00.699Z,115.87
2017-10-20T02:24:30.548Z,119.20
2017-10-20T02:27:00.424Z,113.50
2017-10-20T02:29:30.300Z,101.07
2017-10-20T02:32:00.201Z,111.70
2017-10-20T02:34:30.113Z,106.37
2017-10-20T02:37:00.019Z,111.37
2017-10-20T02:39:29.885Z,100.67
2017-10-20T02:41:59.784Z,121.10
2017-10-20T02:44:29.705Z,103.43
2017-10-20T02:46:59.562Z,115.83
2017-10-20T02:49:29.829Z,109.47
2017-10-20T02:51:59.670Z,110.73
2017-10-20T02:54:29.974Z,113.10
2017-10-20T02:56:59.830Z,102.10
2017-10-20T02:59:30.048Z,96.77
2017-10-20T03:01:59.892Z,104.27
2017-10-20T03:04:30.077Z,117.17
2017-10-20T03:06:59.930Z,103.47
2017-10-20T03:09:30.141Z,95.37
2017-10-20T03:11:59.977Z,103.73
2017-10-20T03:14:30.211Z,114.73
2017-10-20T03:17:00.068Z,109.90
2017-10-20T03:19:29.944Z,106.63
2017-10-20T03:21:59.828Z,110.13
2017-10-20T03:24:29.694Z,107.80
2017-10-20T03:26:59.721Z,102.83
2017-10-20T03:29:29.590Z,106.20
2017-10-20T03:31:59.497Z,128.73
2017-10-20T03:34:29.370Z,112.17
2017-10-20T03:36:59.589Z,111.83
2017-10-20T03:39:29.466Z,109.67
2017-10-20T03:41:59.688Z,108.33
2017-10-20T03:44:29.542Z,99.10
2017-10-20T03:46:59.423Z,106.50
2017-10-20T03:49:29.295Z,97.03
2017-10-20T03:51:59.347Z,108.80
2017-10-20T03:54:29.186Z,121.03
2017-10-20T03:56:59.179Z,107.73
2017-10-20T03:59:29.045Z,101.20
2017-10-20T04:01:58.906Z,97.67
2017-10-20T04:04:28.786Z,104.40
2017-10-20T04:06:58.645Z,83.00
2017-10-20T04:09:28.512Z,86.97
2017-10-20T04:11:58.355Z,92.47
2017-10-20T04:14:28.634Z,95.63
2017-10-20T04:16:58.520Z,92.03
2017-10-20T04:19:28.827Z,106.90
2017-10-20T04:21:58.701Z,95.70
2017-10-20T04:24:29.020Z,99.17
2017-10-20T04:26:58.914Z,99.23
2017-10-20T04:29:28.785Z,107.00
2017-10-20T04:31:58.679Z,104.30
2017-10-20T04:34:28.926Z,93.57
2017-10-20T04:36:58.798Z,99.70
2017-10-20T04:39:29.004Z,101.87
2017-10-20T04:41:58.867Z,107.23
2017-10-20T04:44:28.765Z,114.93
2017-10-20T04:46:58.623Z,100.37
2017-10-20T04:49:28.522Z,103.07
2017-10-20T04:51:58.381Z,96.10
2017-10-20T04:54:28.685Z,91.53
2017-10-20T04:56:58.533Z,95.80
2017-10-20T04:59:28.915Z,96.97
2017-10-20T05:01:58.775Z,94.13
2017-10-20T05:04:28.660Z,91.40
2017-10-20T05:06:58.682Z,82.23
2017-10-20T05:09:28.903Z,81.00
2017-10-20T05:11:58.777Z,89.43
2017-10-20T05:14:28.669Z,87.67
2017-10-20T05:16:58.530Z,83.57
2017-10-20T05:19:28.425Z,82.47
2017-10-20T05:21:58.313Z,91.77
2017-10-20T05:24:29.073Z,92.70
2017-10-20T05:26:58.942Z,89.87
2017-10-20T05:29:29.216Z,89.43
2017-10-20T05:31:59.057Z,89.13
2017-10-20T05:34:28.947Z,80.80
2017-10-20T05:36:58.812Z,76.23
2017-10-20T05:39:28.658Z,81.73
2017-10-20T05:41:58.514Z,87.43
2017-10-20T05:44:28.450Z,77.73
2017-10-20T05:46:58.335Z,78.97
2017-10-20T05:49:28.196Z,79.87
2017-10-20T05:51:58.117Z,83.87
2017-10-20T05:54:28.609Z,81.30
2017-10-20T05:56:58.598Z,77.70
2017-10-20T05:59:28.452Z,72.80
2017-10-20T06:01:58.883Z,70.63
2017-10-20T06:04:28.770Z,73.67
2017-10-20T06:06:58.939Z,78.63
2017-10-20T06:09:28.791Z,77.17
2017-10-20T06:11:59.190Z,72.60
2017-10-20T06:14:29.072Z,80.57
2017-10-20T06:16:58.929Z,68.83
2017-10-20T06:19:28.773Z,64.63
2017-10-20T06:21:58.624Z,74.70
2017-10-20T06:24:28.473Z,69.53
2017-10-20T06:26:58.338Z,64.07
2017-10-20T06:29:28.199Z,66.33
2017-10-20T06:31:58.078Z,62.37
2017-10-20T06:34:28.009Z,57.70
2017-10-20T06:36:57.890Z,60.23
2017-10-20T06:39:27.770Z,59.97
2017-10-20T06:41:57.616Z,88.13
2017-10-20T06:44:27.516Z,55.77
2017-10-20T06:46:57.372Z,59.83
2017-10-20T06:49:27.546Z,51.57
2017-10-20T06:51:57.395Z,58.97
2017-10-20T06:54:27.310Z,52.00
2017-10-20T06:56:57.178Z,55.73
2017-10-20T06:59:27.077Z,54.00
2017-10-20T07:01:56.934Z,51.93
2017-10-20T07:04:26.818Z,52.80
2017-10-20T07:06:56.678Z,48.30
2017-10-20T07:09:26.621Z,45.17
2017-10-20T07:11:56.473Z,44.17
2017-10-20T07:14:26.363Z,43.57
2017-10-20T07:16:56.308Z,42.73
2017-10-20T07:22:36.125Z,42.17
2017-10-20T07:25:06.010Z,42.47
2017-10-20T07:27:35.915Z,53.80
2017-10-20T07:30:05.793Z,42.90
2017-10-20T07:32:35.638Z,44.33
2017-10-20T07:35:05.566Z,38.70
2017-10-20T07:37:35.446Z,39.47
2017-10-20T07:40:05.343Z,39.27
2017-10-20T07:42:35.206Z,36.10
2017-10-20T07:45:05.078Z,36.87
2017-10-20T07:47:34.951Z,38.07
2017-10-20T07:50:04.819Z,35.17
2017-10-20T07:52:34.718Z,34.73
2017-10-20T07:55:04.617Z,34.80
2017-10-20T07:57:34.570Z,33.33
2017-10-20T08:00:04.427Z,29.77
2017-10-20T08:02:34.972Z,30.20
2017-10-20T08:05:04.971Z,36.63
2017-10-20T08:07:34.847Z,28.53
2017-10-20T08:10:04.701Z,27.30
2017-10-20T08:12:34.635Z,35.10
2017-10-20T08:15:04.515Z,26.90
2017-10-20T08:17:34.442Z,26.73
2017-10-20T08:20:04.315Z,28.20
2017-10-20T08:22:34.182Z,27.00
2017-10-20T08:25:04.055Z,26.43
2017-10-20T08:27:34.836Z,25.23
2017-10-20T08:30:04.733Z,24.30
2017-10-20T08:32:34.636Z,27.27
2017-10-20T08:35:04.575Z,25.33
2017-10-20T08:37:34.459Z,25.10
2017-10-20T08:40:04.337Z,25.90
2017-10-20T08:42:34.335Z,27.50
2017-10-20T08:45:04.194Z,25.60
2017-10-20T08:47:34.092Z,25.67
2017-10-20T08:50:03.971Z,24.97
2017-10-20T08:52:33.949Z,26.67
2017-10-20T08:55:03.864Z,27.73
2017-10-20T08:57:33.765Z,30.70
2017-10-20T09:00:03.695Z,24.23
2017-10-20T09:02:33.632Z,31.03
2017-10-20T09:05:03.577Z,27.17
2017-10-20T09:07:33.434Z,40.13
2017-10-20T09:10:03.354Z,32.97
2017-10-20T09:12:33.237Z,30.10
2017-10-20T09:15:03.206Z,27.73
2017-10-20T09:17:33.122Z,28.17
2017-10-20T09:20:03.026Z,32.47
2017-10-20T09:22:32.919Z,25.47
2017-10-20T09:25:02.823Z,29.70
2017-10-20T09:27:32.822Z,25.83
2017-10-20T09:30:02.766Z,26.50
2017-10-20T09:32:32.657Z,26.90
2017-10-20T09:35:02.523Z,25.17
2017-10-20T09:37:32.942Z,25.20
2017-10-20T09:40:02.822Z,31.00
2017-10-20T09:42:32.813Z,24.67
2017-10-20T09:45:02.694Z,26.00
2017-10-20T09:47:32.587Z,29.93
2017-10-20T09:50:02.439Z,32.73
2017-10-20T09:52:32.399Z,24.67
2017-10-20T09:55:02.267Z,28.80
2017-10-20T09:57:32.260Z,28.70
2017-10-20T10:00:02.164Z,24.97
2017-10-20T10:02:32.062Z,31.90
2017-10-20T10:05:01.934Z,29.73
2017-10-20T10:07:31.805Z,24.27
2017-10-20T10:10:01.687Z,24.10
2017-10-20T10:12:31.545Z,25.43
2017-10-20T10:15:01.640Z,27.60
2017-10-20T10:17:31.522Z,28.83
2017-10-20T10:20:01.425Z,27.27
2017-10-20T10:22:31.306Z,27.17
2017-10-20T10:25:01.223Z,28.07
2017-10-20T10:27:31.133Z,34.70
2017-10-20T10:30:01.024Z,27.00
2017-10-20T10:32:30.894Z,40.50
2017-10-20T10:35:00.804Z,35.50
2017-10-20T10:37:30.938Z,27.43
2017-10-20T10:40:00.900Z,31.53
2017-10-20T10:42:30.761Z,27.17
2017-10-20T10:45:01.627Z,28.00
2017-10-20T10:47:31.525Z,30.57
2017-10-20T10:50:01.401Z,33.13
2017-10-20T10:52:31.294Z,28.70
2017-10-20T10:55:01.169Z,48.03
2017-10-20T10:57:31.195Z,32.17
2017-10-20T11:00:01.044Z,32.67
2017-10-20T11:02:30.943Z,33.17
2017-10-20T11:05:07.569Z,33.70
2017-10-20T11:07:49.206Z,36.23
2017-10-20T11:10:30.814Z,35.43
2017-10-20T11:13:01.512Z,38.47
2017-10-20T11:15:31.369Z,31.07
2017-10-20T11:18:01.255Z,32.03
2017-10-20T11:20:31.166Z,30.30
2017-10-20T11:23:01.034Z,32.57
2017-10-20T11:25:31.100Z,29.73
2017-10-20T11:28:00.988Z,32.87
2017-10-20T11:30:30.854Z,33.47
2017-10-20T11:33:00.750Z,37.03
2017-10-20T11:35:30.957Z,33.97
2017-10-20T11:38:00.859Z,32.97
2017-10-20T11:40:30.727Z,34.50
2017-10-20T11:43:00.651Z,32.53
2017-10-20T11:45:30.570Z,30.93
2017-10-20T11:48:00.478Z,34.60
2017-10-20T11:50:30.459Z,45.10
2017-10-20T11:53:00.372Z,36.63
2017-10-20T11:55:30.319Z,32.77
2017-10-20T11:58:00.234Z,37.73
2017-10-20T12:00:30.112Z,31.93
2017-10-20T12:03:00.032Z,34.50
2017-10-20T12:05:30.060Z,35.77
2017-10-20T12:07:59.957Z,33.77
2017-10-20T12:10:29.890Z,32.87
2017-10-20T12:12:59.777Z,32.50
2017-10-20T12:15:29.657Z,30.07
2017-10-20T12:17:59.579Z,33.30
2017-10-20T12:20:29.464Z,26.70
2017-10-20T12:22:59.351Z,29.53
2017-10-20T12:25:29.249Z,29.43
2017-10-20T12:27:59.131Z,29.00
2017-10-20T12:30:29.020Z,28.00
2017-10-20T12:32:58.942Z,27.67
2017-10-20T12:35:28.911Z,28.43
2017-10-20T12:37:58.825Z,29.47
2017-10-20T12:40:28.704Z,22.67
2017-10-20T12:42:58.741Z,24.03
2017-10-20T12:45:28.651Z,22.63
2017-10-20T12:47:58.565Z,23.70
2017-10-20T12:50:28.479Z,25.40
2017-10-20T12:52:58.375Z,22.53
2017-10-20T12:55:28.205Z,21.93
2017-10-20T12:57:58.158Z,21.83
2017-10-20T13:00:28.081Z,23.20
2017-10-20T13:02:58.024Z,21.37
2017-10-20T13:05:27.945Z,23.57
2017-10-20T13:07:57.899Z,18.70
2017-10-20T13:10:27.809Z,18.07
2017-10-20T13:12:57.677Z,21.53
2017-10-20T13:15:27.601Z,16.33
2017-10-20T13:17:57.514Z,18.70
2017-10-20T13:20:27.407Z,16.33
2017-10-20T13:22:57.356Z,20.63
2017-10-20T13:25:27.253Z,18.37
2017-10-20T13:27:57.169Z,18.00
2017-10-20T13:30:27.059Z,17.40
2017-10-20T13:32:56.918Z,18.40
2017-10-20T13:35:26.795Z,18.57
2017-10-20T13:37:56.711Z,16.27
2017-10-20T13:40:26.625Z,17.43
2017-10-20T13:42:56.666Z,18.93
2017-10-20T13:45:26.548Z,15.90
2017-10-20T13:47:56.501Z,18.37
2017-10-20T13:50:26.379Z,16.00
2017-10-20T13:52:56.292Z,13.90
2017-10-20T13:55:26.177Z,14.33
2017-10-20T13:57:56.126Z,16.07
2017-10-20T14:00:26.013Z,17.13
2017-10-20T14:02:55.895Z,15.43
2017-10-20T14:05:26.274Z,16.23
2017-10-20T14:07:56.155Z,16.27
2017-10-20T14:10:26.052Z,18.70
2017-10-20T14:12:55.898Z,15.80
2017-10-20T14:15:25.809Z,17.20
2017-10-20T14:17:55.757Z,17.77
2017-10-20T14:20:25.639Z,15.97
2017-10-20T14:22:55.529Z,16.30
2017-10-20T14:25:25.445Z,16.30
2017-10-20T14:27:55.376Z,19.43
2017-10-20T14:30:25.267Z,16.60
2017-10-20T14:32:55.132Z,16.40
2017-10-20T14:35:25.013Z,17.07
2017-10-20T14:37:54.867Z,22.73
2017-10-20T14:40:24.812Z,21.30
2017-10-20T14:42:54.699Z,18.80
2017-10-20T14:45:24.591Z,20.80
2017-10-20T14:47:54.479Z,19.10
2017-10-20T14:50:24.444Z,18.60
2017-10-20T14:52:54.408Z,17.83
2017-10-20T14:55:24.281Z,19.93
2017-10-20T14:57:54.163Z,19.10
2017-10-20T15:00:24.075Z,18.77
2017-10-20T15:02:53.964Z,19.37
2017-10-20T15:05:23.970Z,18.63
2017-10-20T15:07:53.862Z,18.60
2017-10-20T15:10:23.770Z,19.23
2017-10-20T15:12:53.639Z,17.90
2017-10-20T15:15:23.553Z,21.33
2017-10-20T15:17:53.406Z,27.83
2017-10-20T15:20:23.290Z,19.40
2017-10-20T15:22:53.166Z,17.90
2017-10-20T15:25:23.134Z,17.70
2017-10-20T15:27:52.999Z,17.67
2017-10-20T15:30:22.901Z,16.60
2017-10-20T15:32:52.932Z,16.00
2017-10-20T15:35:22.931Z,16.20
2017-10-20T15:37:52.862Z,15.70
2017-10-20T15:40:22.770Z,16.23
2017-10-20T15:42:52.675Z,15.80
2017-10-20T15:45:22.568Z,14.83
2017-10-20T15:47:52.607Z,14.67
2017-10-20T15:50:22.466Z,14.37
2017-10-20T15:52:52.378Z,14.60
2017-10-20T15:55:22.262Z,14.20
2017-10-20T15:57:52.213Z,13.43
2017-10-20T16:00:22.091Z,13.00
2017-10-20T16:02:52.103Z,13.47
2017-10-20T16:05:21.960Z,13.40
2017-10-20T16:07:51.825Z,14.43
2017-10-20T16:10:21.759Z,13.13
2017-10-20T16:12:51.615Z,15.57
2017-10-20T16:15:21.519Z,13.97
2017-10-20T16:17:51.400Z,14.00
2017-10-20T16:20:21.314Z,14.60
2017-10-20T16:22:51.195Z,15.00
2017-10-20T16:25:21.074Z,18.20
2017-10-20T16:27:50.947Z,15.50
2017-10-20T16:30:20.817Z,15.87
2017-10-20T16:32:50.704Z,16.43
2017-10-20T16:35:20.576Z,25.77
2017-10-20T16:37:50.491Z,18.27
2017-10-20T16:40:20.607Z,17.33
2017-10-20T16:42:50.597Z,17.03
2017-10-20T16:45:20.507Z,17.10
2017-10-20T16:47:50.422Z,17.03
2017-10-20T16:50:20.287Z,24.23
2017-10-20T16:52:50.236Z,18.90
2017-10-20T16:55:20.098Z,18.27
2017-10-20T16:57:49.977Z,19.30
2017-10-20T17:00:19.860Z,18.07
2017-10-20T17:02:49.727Z,17.47
2017-10-20T17:05:19.652Z,20.30
2017-10-20T17:07:49.537Z,23.60
2017-10-20T17:10:19.517Z,18.50
2017-10-20T17:12:49.398Z,20.60
2017-10-20T17:15:19.348Z,17.93
2017-10-20T17:17:51.147Z,22.87
2017-10-20T17:20:21.086Z,25.30
2017-10-20T17:22:50.966Z,23.47
2017-10-20T17:25:20.858Z,25.63
2017-10-20T17:27:50.727Z,24.53
2017-10-20T17:30:20.614Z,24.07
2017-10-20T17:32:50.478Z,26.27
2017-10-20T17:35:20.361Z,24.30
2017-10-20T17:37:50.261Z,25.93
2017-10-20T17:40:20.156Z,29.07
2017-10-20T17:42:50.151Z,25.83
2017-10-20T17:45:20.036Z,24.57
2017-10-20T17:47:49.928Z,29.13
2017-10-20T17:50:19.786Z,30.00
2017-10-20T17:52:49.684Z,26.20
2017-10-20T17:55:19.554Z,27.40
2017-10-20T17:57:49.486Z,29.00
2017-10-20T18:00:19.363Z,30.00
2017-10-20T18:02:49.246Z,30.50
2017-10-20T18:05:19.227Z,27.43
2017-10-20T18:07:49.147Z,33.67
2017-10-20T18:10:19.041Z,32.53
2017-10-20T18:12:48.934Z,27.43
2017-10-20T18:15:18.823Z,24.77
2017-10-20T18:17:48.709Z,23.67
2017-10-20T18:20:18.622Z,32.90
2017-10-20T18:22:48.485Z,26.03
2017-10-20T18:25:18.405Z,24.37
2017-10-20T18:27:48.309Z,24.20
2017-10-20T18:30:18.201Z,26.63
2017-10-20T18:32:48.116Z,24.43
2017-10-20T18:35:18.044Z,24.17
2017-10-20T18:37:47.928Z,24.93
2017-10-20T18:40:17.886Z,26.10
2017-10-20T18:42:47.796Z,31.30
2017-10-20T18:45:17.658Z,27.77
2017-10-20T18:47:47.610Z,31.17
2017-10-20T18:50:17.494Z,29.37
2017-10-20T18:52:47.416Z,27.90
2017-10-20T18:55:17.321Z,24.83
2017-10-20T18:57:47.239Z,22.07
2017-10-20T19:00:17.114Z,19.40
2017-10-20T19:02:47.010Z,24.23
2017-10-20T19:05:16.898Z,16.57
2017-10-20T19:07:46.789Z,13.83
2017-10-20T19:10:16.725Z,16.60
2017-10-20T19:12:46.739Z,13.43
2017-10-20T19:15:16.668Z,12.33
2017-10-20T19:17:46.559Z,12.13
2017-10-20T19:20:16.535Z,11.00
2017-10-20T19:22:47.318Z,11.53
2017-10-20T19:25:21.097Z,12.77
2017-10-20T19:27:51.158Z,14.43
2017-10-20T19:30:21.150Z,10.10
2017-10-20T19:32:51.032Z,10.03
2017-10-20T19:35:20.956Z,10.00
2017-10-20T19:37:50.824Z,12.47
2017-10-20T19:40:20.937Z,9.13
2017-10-20T19:42:52.178Z,14.37
2017-10-20T19:45:22.456Z,13.90
2017-10-20T19:47:52.376Z,9.57
2017-10-20T19:50:22.334Z,12.37
2017-10-20T19:52:52.271Z,9.63
2017-10-20T19:55:22.221Z,15.23
2017-10-20T19:57:52.109Z,11.43
2017-10-20T20:00:21.965Z,7.30
2017-10-20T20:02:51.832Z,11.00
2017-10-20T20:05:21.754Z,10.13
2017-10-20T20:07:51.666Z,11.83
2017-10-20T20:10:21.554Z,13.17
2017-10-20T20:12:51.521Z,7.00
2017-10-20T20:15:21.371Z,12.77
2017-10-20T20:17:51.263Z,8.93
2017-10-20T20:20:21.148Z,10.30
2017-10-20T20:22:51.087Z,10.20
2017-10-20T20:25:21.003Z,10.90
2017-10-20T20:27:50.925Z,21.23
2017-10-20T20:30:21.750Z,11.80
2017-10-20T20:32:53.077Z,10.10
2017-10-20T20:35:22.996Z,13.27
2017-10-20T20:37:52.879Z,14.47
2017-10-20T20:40:22.762Z,14.53
2017-10-20T20:42:52.780Z,13.20
2017-10-20T20:45:22.741Z,11.43
2017-10-20T20:47:52.699Z,14.20
2017-10-20T20:50:22.620Z,10.30
2017-10-20T20:52:52.582Z,14.47
2017-10-20T20:55:22.489Z,14.13
2017-10-20T20:57:52.437Z,11.70
2017-10-20T21:00:22.298Z,21.13
2017-10-20T21:02:52.212Z,14.80
2017-10-20T21:05:22.118Z,16.60
2017-10-20T21:07:52.006Z,10.50
2017-10-20T21:10:21.879Z,11.10
2017-10-20T21:12:51.766Z,13.73
2017-10-20T21:15:21.629Z,11.40
2017-10-20T21:17:51.564Z,15.83
2017-10-20T21:20:21.447Z,13.10
2017-10-20T21:22:51.319Z,10.37
2017-10-20T21:25:21.187Z,10.90
2017-10-20T21:27:51.079Z,18.30
2017-10-20T21:30:20.975Z,16.50
2017-10-20T21:32:50.839Z,14.87
2017-10-20T21:35:20.743Z,13.40
2017-10-20T21:37:50.611Z,14.90
2017-10-20T21:40:20.518Z,15.03
2017-10-20T21:42:50.401Z,14.10
2017-10-20T21:45:20.317Z,18.80
2017-10-20T21:47:50.238Z,14.23
2017-10-20T21:50:20.154Z,11.73
2017-10-20T21:52:50.082Z,14.67
2017-10-20T21:55:19.958Z,14.80
2017-10-20T21:57:49.815Z,12.40
2017-10-20T22:00:19.790Z,16.50
2017-10-20T22:02:49.685Z,15.27
2017-10-20T22:05:19.594Z,12.10
2017-10-20T22:07:49.494Z,12.47
2017-10-20T22:10:19.372Z,16.93
2017-10-20T22:12:49.286Z,13.20
2017-10-20T22:15:19.221Z,18.23
2017-10-20T22:17:49.105Z,13.20
2017-10-20T22:20:19.051Z,14.30
2017-10-20T22:22:48.932Z,15.10
2017-10-20T22:25:18.841Z,19.97
2017-10-20T22:27:48.731Z,19.13
2017-10-20T22:30:18.605Z,22.40
2017-10-20T22:32:48.467Z,18.57
2017-10-20T22:35:18.365Z,15.80
2017-10-20T22:37:48.242Z,15.00
2017-10-20T22:40:18.190Z,13.53
2017-10-20T22:42:48.061Z,22.13
2017-10-20T22:45:17.947Z,14.17
2017-10-20T22:47:47.815Z,12.10
2017-10-20T22:50:17.745Z,16.83
2017-10-20T22:52:47.643Z,12.10
2017-10-20T22:55:17.609Z,13.37
2017-10-20T22:57:47.482Z,16.27
2017-10-20T23:00:17.351Z,19.67
2017-10-20T23:02:47.283Z,10.83
2017-10-20T23:05:17.162Z,19.33
2017-10-20T23:07:47.042Z,17.87
2017-10-20T23:10:16.957Z,16.27
2017-10-20T23:12:46.874Z,12.53
2017-10-20T23:15:16.764Z,16.10
2017-10-20T23:17:46.630Z,17.53
2017-10-20T23:20:16.514Z,17.77
2017-10-20T23:22:46.384Z,18.43
2017-10-20T23:25:16.287Z,14.93
2017-10-20T23:27:46.150Z,18.87
2017-10-20T23:30:16.034Z,13.57
2017-10-20T23:32:45.894Z,14.57
2017-10-20T23:35:15.764Z,14.83
2017-10-20T23:37:45.689Z,19.63
2017-10-20T23:40:15.565Z,22.17
2017-10-20T23:42:45.463Z,17.63
2017-10-20T23:45:15.358Z,17.13
2017-10-20T23:47:45.257Z,15.37
2017-10-20T23:50:15.184Z,19.50
2017-10-20T23:52:45.164Z,15.80
2017-10-20T23:55:15.079Z,17.40
2017-10-20T23:57:45.173Z,13.97
